CheckWX is a tool to help pilots better visualize weather data.  It is not intended as a substitute for an official pre-flight weather briefing.

05:40:24 UTC

EPWA METAR
Warsaw Chopin Airport
Warsaw, Poland
Current

40 mins ago

EPWA 240500Z 28008KT 240V300 9999 BKN043 M01/M07 Q1036 NOSIG
Observed
Feb-24 @ 05:00 UTC
Wind
  • 280° at 8 KTS
Visibility
10,000+ meters
Flight Rules
VFR
Cloud Levels
  • Broken at 4,300' AGL
Temperature
-1°C / 30°F
Dewpoint
-7°C / 19°F
Humidity
64%
Altimeter
30.59" Hg
Pressure
1035.91 hPa
Previous

1 hour ago

EPWA 240430Z 27009KT 9999 BKN046 M01/M07 Q1036 NOSIG
Observed
Feb-24 @ 04:30 UTC
Wind
  • 270° at 9 KTS
Visibility
10,000+ meters
Flight Rules
VFR
Cloud Levels
  • Broken at 4,600' AGL
Temperature
-1°C / 30°F
Dewpoint
-7°C / 19°F
Humidity
64%
Altimeter
30.59" Hg
Pressure
1035.91 hPa
Previous

2 hours ago

EPWA 240400Z 27011KT 240V300 9999 BKN046 M01/M08 Q1036 NOSIG
Observed
Feb-24 @ 04:00 UTC
Wind
  • 270° at 11 KTS
Visibility
10,000+ meters
Flight Rules
VFR
Cloud Levels
  • Broken at 4,600' AGL
Temperature
-1°C / 30°F
Dewpoint
-8°C / 18°F
Humidity
59%
Altimeter
30.59" Hg
Pressure
1035.91 hPa